Terminal Aerodrome Forecast
Issued by NWS

Home | Current Version | Previous Version | Text Only | Print | Product List | Glossary On
Versions: 1 2 3 4 5 6 7 8 9 10 11 12 13 14 15 16
000
FTUS42 KTAE 202328
TAFDHN
TAF
KDHN 202328Z 2100/2124 06008KT P6SM SKC
     FM210600 07008KT P6SM BKN040
     FM211500 08012KT P6SM BKN030
     FM212000 09015KT P6SM BKN040=

USA.gov is the U.S. government's official web portal to all federal, state and local government web resources and services.